Time;durP1;ratioP1;P1;durP2;ratioP2;P2;SDS_P1;SDS_P2;PMS_P1;PMS_P2;Temp;Humidity;BMP_temperature;BMP_pressure;BME280_temperature;BME280_humidity;BME280_pressure;Samples;Min_cycle;Max_cycle;Signal;HPM_P1;HPM_P2
2022/09/18 00:00:04;;;;;;;9.15;1.88;;;9.80;99.90;;;;;;5016328;28;20049;-94
2022/09/18 00:02:30;;;;;;;10.77;2.22;;;9.80;99.90;;;;;;5032417;28;20474;-90
2022/09/18 00:04:56;;;;;;;9.73;1.50;;;9.80;99.90;;;;;;5018541;28;20488;-92
2022/09/18 00:07:22;;;;;;;10.15;1.83;;;9.80;99.90;;;;;;5002379;28;20055;-92
2022/09/18 00:09:48;;;;;;;10.32;1.80;;;9.80;99.90;;;;;;5008157;28;20099;-91
2022/09/18 00:12:14;;;;;;;10.15;1.70;;;9.70;99.90;;;;;;5024873;28;20033;-91
2022/09/18 00:14:40;;;;;;;8.38;1.60;;;9.80;99.90;;;;;;5007433;28;20496;-90
2022/09/18 00:17:09;;;;;;;12.00;2.08;;;9.70;99.90;;;;;;5023084;28;20048;-89
2022/09/18 00:19:35;;;;;;;10.18;1.80;;;9.70;99.90;;;;;;5036165;28;20466;-91
2022/09/18 00:22:01;;;;;;;9.15;1.85;;;9.70;99.90;;;;;;5025792;28;20057;-86
2022/09/18 00:24:27;;;;;;;10.55;1.63;;;9.70;99.90;;;;;;5040301;28;20843;-91
2022/09/18 00:26:52;;;;;;;9.80;2.92;;;9.60;99.90;;;;;;5045583;28;20055;-92
2022/09/18 00:29:56;;;;;;;9.57;1.60;;;9.60;99.90;;;;;;5065895;28;20044;-93
2022/09/18 00:32:22;;;;;;;11.32;2.20;;;9.60;99.90;;;;;;5049719;28;20409;-89
2022/09/18 00:34:48;;;;;;;14.82;2.28;;;9.60;99.90;;;;;;5018506;28;20036;-92
2022/09/18 00:37:14;;;;;;;8.50;1.83;;;9.70;99.90;;;;;;5045439;28;20048;-92
2022/09/18 00:39:40;;;;;;;17.60;2.22;;;9.70;99.90;;;;;;5033074;28;20447;-92
2022/09/18 00:42:12;;;;;;;12.68;2.60;;;9.70;99.90;;;;;;5031164;28;20040;-92
2022/09/18 00:44:43;;;;;;;10.45;2.00;;;9.70;99.90;;;;;;5032457;28;20071;-92
2022/09/18 00:47:09;;;;;;;10.75;2.30;;;9.80;99.90;;;;;;5041903;28;20415;-90
2022/09/18 00:49:46;;;;;;;11.85;2.42;;;9.80;99.90;;;;;;5044058;28;20056;-91
2022/09/18 00:52:14;;;;;;;16.35;2.33;;;9.80;99.90;;;;;;5046798;28;20132;-92
2022/09/18 00:54:46;;;;;;;;;;;9.90;99.90;;;;;;5063141;28;20036;-92
2022/09/18 00:57:17;;;;;;;10.75;2.13;;;9.80;99.90;;;;;;5045035;28;19928;-93
2022/09/18 00:59:48;;;;;;;10.65;1.85;;;9.80;99.90;;;;;;5046808;28;20044;-92
2022/09/18 01:02:13;;;;;;;14.18;2.15;;;9.80;99.90;;;;;;5050349;28;20046;-90
2022/09/18 01:04:43;;;;;;;10.82;2.40;;;9.80;99.90;;;;;;5030148;28;20048;-93
2022/09/18 01:07:40;;;;;;;13.98;2.25;;;9.80;99.90;;;;;;5051027;28;20055;-92
2022/09/18 01:10:45;;;;;;;12.00;2.13;;;9.80;99.90;;;;;;5047867;28;20064;-92
2022/09/18 01:13:29;;;;;;;13.27;2.17;;;9.80;99.90;;;;;;5050794;28;20048;-92
2022/09/18 01:16:10;;;;;;;12.90;1.98;;;9.80;99.90;;;;;;5047172;28;20051;-92
2022/09/18 01:19:04;;;;;;;11.32;1.95;;;9.80;99.90;;;;;;5064494;28;20436;-93
2022/09/18 01:21:59;;;;;;;12.38;2.08;;;9.80;99.90;;;;;;5038963;28;20041;-83
2022/09/18 01:24:38;;;;;;;14.77;3.45;;;9.80;99.90;;;;;;5030903;28;20060;-83
2022/09/18 01:27:26;;;;;;;14.23;2.20;;;9.90;99.90;;;;;;5054799;28;20127;-83
2022/09/18 01:30:01;;;;;;;14.35;2.15;;;9.90;99.90;;;;;;5047028;28;20090;-90
2022/09/18 01:32:48;;;;;;;12.10;2.40;;;9.90;99.90;;;;;;5045330;28;20037;-91
2022/09/18 01:35:51;;;;;;;9.88;1.77;;;9.90;99.90;;;;;;5063432;28;20506;-83
2022/09/18 01:38:32;;;;;;;11.55;2.15;;;10.00;99.90;;;;;;5035008;28;20135;-83
2022/09/18 01:41:20;;;;;;;11.20;2.20;;;10.00;99.90;;;;;;5038712;28;20513;-83
2022/09/18 01:43:52;;;;;;;12.65;2.05;;;10.00;99.90;;;;;;5043304;28;20045;-83
2022/09/18 01:46:19;;;;;;;13.93;2.15;;;10.00;99.90;;;;;;5043607;28;20048;-84
2022/09/18 01:49:11;;;;;;;8.20;1.70;;;10.10;99.90;;;;;;5025189;28;20675;-83
2022/09/18 01:52:09;;;;;;;9.55;1.83;;;10.10;99.90;;;;;;5042414;28;20067;-83
2022/09/18 01:54:41;;;;;;;9.50;2.38;;;10.10;99.90;;;;;;5032667;28;20138;-91
2022/09/18 01:57:12;;;;;;;7.45;1.50;;;10.00;99.90;;;;;;5062125;28;20796;-92
2022/09/18 01:59:45;;;;;;;13.15;1.95;;;10.10;99.90;;;;;;5045229;28;20041;-90
2022/09/18 02:02:19;;;;;;;9.93;1.52;;;10.10;99.90;;;;;;5047754;28;20040;-91
2022/09/18 02:04:49;;;;;;;12.77;2.30;;;10.10;99.90;;;;;;5059701;28;20487;-83
2022/09/18 02:07:27;;;;;;;10.52;2.17;;;10.10;99.90;;;;;;5034839;28;20044;-90
2022/09/18 02:09:53;;;;;;;13.20;2.00;;;10.10;99.90;;;;;;5046376;28;21176;-91
2022/09/18 02:12:23;;;;;;;13.73;2.22;;;10.20;99.90;;;;;;5028892;28;20053;-90
2022/09/18 02:14:53;;;;;;;11.05;1.85;;;10.20;99.90;;;;;;5055908;28;20049;-92
2022/09/18 02:17:38;;;;;;;10.77;1.85;;;10.10;99.90;;;;;;5048120;28;20048;-91
2022/09/18 02:20:12;;;;;;;10.18;1.85;;;10.20;99.90;;;;;;5040107;28;20120;-90
2022/09/18 02:22:45;;;;;;;9.20;2.17;;;10.20;99.90;;;;;;5036678;28;20044;-92
2022/09/18 02:25:18;;;;;;;12.82;2.00;;;10.20;99.90;;;;;;5050697;28;20052;-89
2022/09/18 02:27:47;;;;;;;8.75;1.95;;;10.20;99.90;;;;;;5040126;28;20049;-90
2022/09/18 02:30:14;;;;;;;7.22;1.25;;;10.20;99.90;;;;;;5048858;28;20495;-91
2022/09/18 02:32:40;;;;;;;10.60;2.13;;;10.20;99.90;;;;;;5036679;28;20040;-92
2022/09/18 02:35:08;;;;;;;10.35;1.98;;;10.20;99.90;;;;;;5023945;28;20500;-89
2022/09/18 02:38:03;;;;;;;9.40;1.77;;;10.20;99.90;;;;;;5033397;28;20049;-90
2022/09/18 02:40:49;;;;;;;11.68;2.08;;;10.30;99.90;;;;;;5030144;28;20057;-91
2022/09/18 02:43:30;;;;;;;10.30;2.00;;;10.20;99.90;;;;;;5038638;28;20044;-90
2022/09/18 02:46:08;;;;;;;10.32;2.22;;;10.30;99.90;;;;;;5058449;28;20036;-91
2022/09/18 02:49:02;;;;;;;8.73;1.83;;;10.30;99.90;;;;;;5041315;28;20510;-92
2022/09/18 02:52:14;;;;;;;8.68;1.65;;;10.30;99.90;;;;;;5037651;28;20063;-91
2022/09/18 02:54:43;;;;;;;10.05;1.70;;;10.30;99.90;;;;;;5008580;28;20041;-93
2022/09/18 02:57:20;;;;;;;8.93;1.52;;;10.30;99.90;;;;;;4992311;28;20523;-91
2022/09/18 02:59:50;;;;;;;11.23;2.15;;;10.30;99.90;;;;;;5024129;28;20052;-93
2022/09/18 03:02:19;;;;;;;11.90;2.00;;;10.30;99.90;;;;;;5049396;28;20036;-91
2022/09/18 03:04:45;;;;;;;10.65;2.63;;;10.30;99.90;;;;;;5047446;28;20046;-93
2022/09/18 03:07:29;;;;;;;10.52;2.03;;;10.40;99.90;;;;;;5012688;28;20175;-92
2022/09/18 03:09:56;;;;;;;9.95;2.05;;;10.40;99.90;;;;;;5046744;28;20083;-93
2022/09/18 03:12:22;;;;;;;10.60;1.60;;;10.40;99.90;;;;;;5026106;28;20515;-91
2022/09/18 03:14:48;;;;;;;10.77;2.00;;;10.40;99.90;;;;;;5020091;28;20111;-92
2022/09/18 03:17:14;;;;;;;9.27;1.48;;;10.50;99.90;;;;;;5033849;28;20426;-91
2022/09/18 03:19:40;;;;;;;9.82;1.58;;;10.50;99.90;;;;;;5044703;28;20107;-95
2022/09/18 03:22:06;;;;;;;12.98;1.90;;;10.50;99.90;;;;;;5039562;28;20126;-95
2022/09/18 03:24:32;;;;;;;9.75;1.33;;;10.50;99.90;;;;;;5027604;28;20721;-95
2022/09/18 03:26:58;;;;;;;12.10;1.90;;;10.50;99.90;;;;;;5028509;28;20336;-92
2022/09/18 03:29:24;;;;;;;7.32;1.30;;;10.50;99.90;;;;;;5041684;28;20070;-92
2022/09/18 03:31:49;;;;;;;9.95;1.83;;;10.50;99.90;;;;;;5011946;28;20079;-93
2022/09/18 03:34:15;;;;;;;10.98;1.83;;;10.50;99.90;;;;;;5045001;28;20068;-92
2022/09/18 03:36:41;;;;;;;12.05;1.92;;;10.50;99.90;;;;;;5041943;28;20336;-91
2022/09/18 03:39:12;;;;;;;10.18;1.73;;;10.50;99.90;;;;;;5047683;28;20040;-93
2022/09/18 03:41:39;;;;;;;7.65;1.33;;;10.50;99.90;;;;;;5034376;28;20057;-91
2022/09/18 03:44:05;;;;;;;10.38;2.03;;;10.40;99.90;;;;;;5047586;28;20389;-95
2022/09/18 03:46:31;;;;;;;9.95;1.73;;;10.40;99.90;;;;;;5016580;28;20075;-93
2022/09/18 03:48:57;;;;;;;11.65;1.70;;;10.40;99.90;;;;;;5061569;28;20072;-93
2022/09/18 03:51:42;;;;;;;7.97;1.15;;;10.40;99.90;;;;;;5029230;28;20497;-95
2022/09/18 03:54:08;;;;;;;8.95;1.63;;;10.40;99.90;;;;;;5045112;28;20526;-93
2022/09/18 03:56:37;;;;;;;6.85;1.65;;;10.40;99.90;;;;;;5025770;28;20051;-93
2022/09/18 03:59:03;;;;;;;10.05;1.42;;;10.40;99.90;;;;;;5032916;28;20510;-93
2022/09/18 04:01:29;;;;;;;9.00;1.40;;;10.40;99.90;;;;;;5016269;28;20041;-93
2022/09/18 04:03:55;;;;;;;12.10;1.70;;;10.40;99.90;;;;;;5045066;28;21462;-93
2022/09/18 04:06:21;;;;;;;11.25;1.95;;;10.40;99.90;;;;;;5031387;28;20158;-89
2022/09/18 04:08:47;;;;;;;11.88;1.65;;;10.40;99.90;;;;;;5029984;28;20048;-91
2022/09/18 04:11:13;;;;;;;7.18;1.27;;;10.40;99.90;;;;;;5047577;28;20078;-92
2022/09/18 04:13:39;;;;;;;8.02;1.20;;;10.40;99.90;;;;;;5010945;28;20045;-92
2022/09/18 04:16:06;;;;;;;6.20;1.25;;;10.40;99.90;;;;;;5050422;28;20059;-92
2022/09/18 04:19:10;;;;;;;9.57;1.30;;;10.40;99.90;;;;;;5047617;28;20099;-92
2022/09/18 04:21:37;;;;;;;8.70;1.35;;;10.40;99.90;;;;;;5048993;28;20045;-92
2022/09/18 04:24:04;;;;;;;7.97;1.10;;;10.30;99.90;;;;;;5033950;28;20078;-92
2022/09/18 04:26:29;;;;;;;6.22;1.33;;;10.40;99.90;;;;;;5034846;28;20037;-91
2022/09/18 04:28:58;;;;;;;10.65;1.58;;;10.30;99.90;;;;;;5031040;28;20494;-93
2022/09/18 04:31:24;;;;;;;5.45;1.08;;;10.30;99.90;;;;;;5049457;28;20032;-92
2022/09/18 04:33:52;;;;;;;5.40;1.40;;;10.30;99.90;;;;;;5035458;28;20041;-92
2022/09/18 04:36:25;;;;;;;8.90;1.48;;;10.30;99.90;;;;;;5029167;28;20250;-91
2022/09/18 04:38:55;;;;;;;8.32;1.67;;;10.30;99.90;;;;;;5015219;28;20040;-93
2022/09/18 04:41:40;;;;;;;10.52;1.58;;;10.30;99.90;;;;;;5061979;28;20044;-94
2022/09/18 04:44:08;;;;;;;9.00;1.13;;;10.30;99.90;;;;;;5042406;28;20048;-91
2022/09/18 04:46:34;;;;;;;8.30;1.20;;;10.30;99.90;;;;;;5011595;28;20037;-84
2022/09/18 04:49:00;;;;;;;9.57;1.65;;;10.30;99.90;;;;;;5025537;28;20074;-84
2022/09/18 04:51:26;;;;;;;12.88;1.48;;;10.30;99.90;;;;;;4946813;28;2625581;-84
2022/09/18 04:53:52;;;;;;;5.00;0.90;;;10.40;99.90;;;;;;5054191;28;20036;-84
2022/09/18 04:56:17;;;;;;;8.65;1.45;;;10.40;99.90;;;;;;5027800;28;20037;-85
2022/09/18 04:58:43;;;;;;;10.02;1.85;;;10.40;99.90;;;;;;5031235;28;20083;-84
2022/09/18 05:01:09;;;;;;;5.47;1.27;;;10.40;99.90;;;;;;5057832;28;20334;-84
2022/09/18 05:03:38;;;;;;;11.27;1.60;;;10.40;99.90;;;;;;5031764;28;20040;-84
2022/09/18 05:06:04;;;;;;;5.28;1.23;;;10.50;99.90;;;;;;5028502;28;20045;-85
2022/09/18 05:08:31;;;;;;;7.90;1.55;;;10.50;99.90;;;;;;5041232;28;20139;-85
2022/09/18 05:10:57;;;;;;;9.18;1.42;;;10.50;99.90;;;;;;5027259;28;20049;-84
2022/09/18 05:13:25;;;;;;;9.30;1.35;;;10.50;99.90;;;;;;5028758;28;20040;-83
2022/09/18 05:15:56;;;;;;;8.57;1.98;;;10.50;99.90;;;;;;5044056;28;20083;-83
2022/09/18 05:18:24;;;;;;;13.85;2.05;;;10.60;99.90;;;;;;5045307;28;20487;-82
2022/09/18 05:20:50;;;;;;;12.70;1.75;;;10.60;99.90;;;;;;5049978;28;20049;-84
2022/09/18 05:23:16;;;;;;;11.45;2.15;;;10.60;99.90;;;;;;5011840;28;20056;-85
2022/09/18 05:25:42;;;;;;;6.45;1.30;;;10.60;99.90;;;;;;5015205;28;20120;-90
2022/09/18 05:28:09;;;;;;;9.80;1.80;;;10.60;99.90;;;;;;5049978;28;20036;-87
2022/09/18 05:30:35;;;;;;;7.88;1.55;;;10.60;99.90;;;;;;5049806;28;20483;-90
2022/09/18 05:33:03;;;;;;;8.07;1.40;;;10.60;99.90;;;;;;5029993;28;20080;-91
2022/09/18 05:35:31;;;;;;;7.28;1.48;;;10.60;99.90;;;;;;5034940;28;20048;-94
2022/09/18 05:37:57;;;;;;;6.57;1.45;;;10.60;99.90;;;;;;5031655;28;20559;-85
2022/09/18 05:40:42;;;;;;;7.20;1.35;;;10.60;99.90;;;;;;5036529;28;20131;-93
2022/09/18 05:43:08;;;;;;;6.53;1.20;;;10.60;99.90;;;;;;5052445;28;20032;-92
2022/09/18 05:45:34;;;;;;;11.35;1.73;;;10.60;99.90;;;;;;5031263;28;20051;-93
2022/09/18 05:48:02;;;;;;;9.70;1.52;;;10.60;99.90;;;;;;5048306;28;20033;-92
2022/09/18 05:50:30;;;;;;;12.35;1.77;;;10.60;99.90;;;;;;5046597;28;20130;-93
2022/09/18 05:53:08;;;;;;;8.10;2.53;;;10.60;99.90;;;;;;5044014;28;20511;-90
2022/09/18 05:55:34;;;;;;;14.10;2.22;;;10.60;99.90;;;;;;5042832;28;20081;-92
2022/09/18 05:58:03;;;;;;;7.18;1.30;;;10.60;99.90;;;;;;5033378;28;20037;-91
2022/09/18 06:00:32;;;;;;;7.38;1.45;;;10.60;99.90;;;;;;5033028;28;20084;-91
2022/09/18 06:03:02;;;;;;;7.65;1.80;;;10.60;99.90;;;;;;5048776;28;20096;-92
2022/09/18 06:05:34;;;;;;;11.55;2.22;;;10.60;99.90;;;;;;5047766;28;20067;-94
2022/09/18 06:08:01;;;;;;;11.57;1.38;;;10.60;99.90;;;;;;5064425;28;20036;-94
2022/09/18 06:10:38;;;;;;;14.32;2.78;;;10.60;99.90;;;;;;5033869;28;20138;-94
2022/09/18 06:13:11;;;;;;;14.50;2.00;;;10.60;99.90;;;;;;5050803;28;20064;-95
2022/09/18 06:15:36;;;;;;;11.00;1.73;;;10.60;99.90;;;;;;5049393;28;20056;-94
2022/09/18 06:18:04;;;;;;;7.72;1.38;;;10.60;99.90;;;;;;5037317;28;20036;-95
2022/09/18 06:20:33;;;;;;;11.40;1.75;;;10.60;99.90;;;;;;5050317;28;20228;-94
2022/09/18 06:23:15;;;;;;;8.52;1.45;;;10.60;99.90;;;;;;5031968;28;20089;-89
2022/09/18 06:25:41;;;;;;;8.95;2.00;;;10.60;99.90;;;;;;5058543;28;20048;-93
2022/09/18 06:28:16;;;;;;;7.50;1.40;;;10.70;99.90;;;;;;5033613;28;20041;-93
2022/09/18 06:30:42;;;;;;;7.57;1.40;;;10.70;99.90;;;;;;5060633;28;20044;-93
2022/09/18 06:33:40;;;;;;;17.05;2.78;;;10.70;99.90;;;;;;5046285;28;20041;-91
2022/09/18 06:36:15;;;;;;;5.53;1.40;;;10.70;99.90;;;;;;5046548;28;20557;-91
2022/09/18 06:38:41;;;;;;;13.55;2.42;;;10.60;99.90;;;;;;5052206;28;20091;-94
2022/09/18 06:41:13;;;;;;;10.55;1.70;;;10.70;99.90;;;;;;5046270;28;20044;-93
2022/09/18 06:43:39;;;;;;;7.97;1.58;;;10.70;99.90;;;;;;5064576;28;20045;-93
2022/09/18 06:46:06;;;;;;;7.93;1.88;;;10.70;99.90;;;;;;5046635;28;20043;-91
2022/09/18 06:48:33;;;;;;;15.68;2.60;;;10.70;99.90;;;;;;5033802;28;20033;-94
2022/09/18 06:51:00;;;;;;;8.27;1.50;;;10.70;99.90;;;;;;5051093;28;20499;-93
2022/09/18 06:53:26;;;;;;;10.68;1.60;;;10.70;99.90;;;;;;5032102;28;20116;-93
2022/09/18 06:55:57;;;;;;;8.43;2.15;;;10.80;99.90;;;;;;5032247;28;20127;-93
2022/09/18 06:58:23;;;;;;;11.10;2.60;;;10.80;99.90;;;;;;5035820;28;20048;-92
2022/09/18 07:00:49;;;;;;;3.38;0.90;;;10.80;99.90;;;;;;5030498;28;20476;-92
2022/09/18 07:03:15;;;;;;;15.40;2.25;;;10.80;99.90;;;;;;5033684;28;20036;-94
2022/09/18 07:05:50;;;;;;;7.75;1.33;;;10.80;99.90;;;;;;5061974;28;20111;-93
2022/09/18 07:08:24;;;;;;;9.32;1.77;;;10.80;99.90;;;;;;5048852;28;21419;-93
2022/09/18 07:10:50;;;;;;;7.55;1.63;;;10.90;99.90;;;;;;5028779;28;20098;-94
2022/09/18 07:13:16;;;;;;;9.43;1.63;;;10.90;99.90;;;;;;5020209;28;20052;-93
2022/09/18 07:15:46;;;;;;;7.35;1.80;;;10.90;99.90;;;;;;5030743;28;20040;-94
2022/09/18 07:18:12;;;;;;;9.95;2.05;;;10.90;99.90;;;;;;5050441;28;20104;-93
2022/09/18 07:20:38;;;;;;;12.60;1.70;;;10.90;99.90;;;;;;5048892;28;20127;-92
2022/09/18 07:23:05;;;;;;;13.30;1.80;;;10.90;99.90;;;;;;5049626;28;20052;-92
2022/09/18 07:25:37;;;;;;;7.75;1.70;;;10.90;99.90;;;;;;5047733;28;20043;-94
2022/09/18 07:28:08;;;;;;;9.75;1.98;;;10.90;99.90;;;;;;5059532;28;20115;-93
2022/09/18 07:30:35;;;;;;;9.35;1.30;;;11.00;99.90;;;;;;5048229;28;20735;-94
2022/09/18 07:33:08;;;;;;;8.75;1.92;;;11.00;99.90;;;;;;5046508;28;20131;-92
2022/09/18 07:38:59;;;;;;;10.93;1.70;;;11.00;99.90;;;;;;5065019;28;20048;-94
2022/09/18 07:41:25;;;;;;;7.78;1.35;;;11.00;99.90;;;;;;5033326;28;20045;-93
2022/09/18 07:43:51;;;;;;;11.63;1.83;;;11.00;99.90;;;;;;5016562;28;20131;-93
2022/09/18 07:46:17;;;;;;;9.85;1.48;;;11.00;99.90;;;;;;5030647;28;20041;-93
2022/09/18 07:48:47;;;;;;;8.45;1.42;;;11.00;99.90;;;;;;5041526;28;20037;-92
2022/09/18 07:51:13;;;;;;;8.43;1.65;;;11.00;99.90;;;;;;5047596;28;20059;-92
2022/09/18 07:53:40;;;;;;;8.80;1.58;;;11.00;99.90;;;;;;5049592;28;20502;-91
2022/09/18 07:56:18;;;;;;;8.40;1.88;;;11.00;99.90;;;;;;5062822;28;20102;-92
2022/09/18 07:58:52;;;;;;;11.40;1.60;;;11.00;99.90;;;;;;5032892;28;20055;-90
2022/09/18 08:01:21;;;;;;;5.25;1.23;;;10.90;99.90;;;;;;5025441;28;20104;-91
2022/09/18 08:04:01;;;;;;;6.80;1.60;;;10.90;99.90;;;;;;5031730;28;20040;-91
2022/09/18 08:06:50;;;;;;;12.73;2.10;;;11.00;99.90;;;;;;5009682;28;20048;-92
2022/09/18 08:09:31;;;;;;;9.07;1.73;;;10.80;99.90;;;;;;5050685;28;20122;-90
2022/09/18 08:12:01;;;;;;;13.93;2.13;;;10.90;99.90;;;;;;5046234;28;20048;-90
2022/09/18 08:14:27;;;;;;;6.55;1.80;;;10.90;99.90;;;;;;5064386;28;20109;-91
2022/09/18 08:17:30;;;;;;;7.03;1.40;;;10.90;99.90;;;;;;5043901;28;20503;-90
2022/09/18 08:20:19;;;;;;;5.15;1.02;;;10.90;99.90;;;;;;5062051;28;20052;-91
2022/09/18 08:26:49;;;;;;;7.03;1.35;;;10.90;99.90;;;;;;5059735;28;20385;-91
2022/09/18 08:29:33;;;;;;;8.15;1.50;;;10.90;99.90;;;;;;5048872;28;20040;-92
2022/09/18 08:32:04;;;;;;;3.83;0.98;;;11.00;99.90;;;;;;5049097;28;20052;-91
2022/09/18 08:34:32;;;;;;;;;;;11.00;99.90;;;;;;5032927;28;20044;-91
2022/09/18 08:37:11;;;;;;;7.57;1.45;;;11.00;99.90;;;;;;5067320;28;20261;-89
2022/09/18 08:39:56;;;;;;;4.85;1.00;;;11.00;99.90;;;;;;5046629;28;20540;-91
2022/09/18 08:42:56;;;;;;;8.27;1.50;;;11.00;99.90;;;;;;5048472;28;20384;-92
2022/09/18 08:45:37;;;;;;;3.63;1.20;;;11.10;99.90;;;;;;5045465;28;20059;-92
2022/09/18 08:48:23;;;;;;;6.63;1.13;;;11.20;99.90;;;;;;5039784;28;20461;-94
2022/09/18 08:50:59;;;;;;;6.28;1.20;;;11.20;99.90;;;;;;5068340;28;20052;-91
2022/09/18 08:53:41;;;;;;;11.07;1.70;;;11.20;99.90;;;;;;5067063;28;20041;-91
2022/09/18 08:56:14;;;;;;;6.18;1.20;;;11.30;99.90;;;;;;5043800;28;20049;-91
2022/09/18 08:59:04;;;;;;;10.95;1.75;;;11.30;99.90;;;;;;5047348;28;20052;-92
2022/09/18 09:02:00;;;;;;;6.57;1.38;;;11.30;99.90;;;;;;5050676;28;20052;-90
2022/09/18 09:04:42;;;;;;;9.30;1.65;;;11.30;99.90;;;;;;5046462;28;20131;-92
2022/09/18 09:07:51;;;;;;;12.88;2.00;;;11.30;99.90;;;;;;5063122;28;20400;-92
2022/09/18 09:10:27;;;;;;;5.55;1.33;;;11.30;99.90;;;;;;5038519;28;20051;-93
2022/09/18 09:13:14;;;;;;;11.90;1.80;;;11.30;99.90;;;;;;5041106;28;20134;-93
2022/09/18 09:16:03;;;;;;;6.22;1.10;;;11.40;99.90;;;;;;5049222;28;20570;-93
2022/09/18 09:18:31;;;;;;;5.13;1.10;;;11.40;99.90;;;;;;5018747;28;20099;-94
2022/09/18 09:21:10;;;;;;;6.50;1.30;;;11.40;99.90;;;;;;5043974;28;20049;-92
2022/09/18 09:24:16;;;;;;;5.00;1.17;;;11.40;99.90;;;;;;5043769;28;20060;-93
2022/09/18 09:26:42;;;;;;;9.80;1.70;;;11.50;99.90;;;;;;5042652;28;20044;-93
2022/09/18 09:29:22;;;;;;;6.97;1.25;;;11.50;99.90;;;;;;5064390;28;20037;-95
2022/09/18 09:31:57;;;;;;;7.57;1.55;;;11.50;99.90;;;;;;5049353;28;20049;-94
2022/09/18 09:34:50;;;;;;;7.72;1.08;;;11.60;99.90;;;;;;5043774;28;20037;-95
2022/09/18 09:37:34;;;;;;;7.78;1.38;;;11.60;99.90;;;;;;5062461;28;20045;-90
2022/09/18 09:40:08;;;;;;;6.20;1.10;;;11.60;99.90;;;;;;5066554;28;20036;-94
2022/09/18 09:43:01;;;;;;;7.18;1.30;;;11.60;99.90;;;;;;5042771;28;20055;-94
2022/09/18 09:45:59;;;;;;;7.40;1.00;;;11.70;99.90;;;;;;5040627;28;20048;-93
2022/09/18 09:49:00;;;;;;;6.38;1.55;;;11.70;99.90;;;;;;5061406;28;20052;-94
2022/09/18 09:52:04;;;;;;;7.43;1.42;;;11.70;99.90;;;;;;5049111;28;20049;-93
2022/09/18 09:54:42;;;;;;;9.55;1.38;;;11.70;99.90;;;;;;5052855;28;20483;-94
2022/09/18 09:57:32;;;;;;;5.75;0.95;;;11.70;99.90;;;;;;5033579;28;20037;-93
2022/09/18 10:00:20;;;;;;;11.25;1.92;;;11.70;99.90;;;;;;5045692;28;20049;-91
2022/09/18 10:03:23;;;;;;;;;;;;;;;;;;;;;
2022/09/18 10:06:59;;;;;;;8.60;1.98;;;11.70;99.90;;;;;;5058672;28;20623;-92
2022/09/18 10:09:58;;;;;;;7.72;1.60;;;11.70;99.90;;;;;;5040281;28;20135;-90
2022/09/18 10:13:26;;;;;;;;;;;;;;;;;;;;;
2022/09/18 10:16:17;;;;;;;5.75;0.98;;;11.70;99.90;;;;;;5061896;28;20052;-92
2022/09/18 10:19:01;;;;;;;7.82;1.30;;;11.70;99.90;;;;;;5012067;28;20466;-95
2022/09/18 10:21:55;;;;;;;8.48;1.20;;;11.70;99.90;;;;;;5024658;28;20049;-94
2022/09/18 10:24:41;;;;;;;7.45;1.60;;;11.70;99.90;;;;;;5019646;28;20093;-93
2022/09/18 10:27:25;;;;;;;5.35;1.13;;;11.70;99.90;;;;;;4993667;28;20053;-94
2022/09/18 10:30:32;;;;;;;6.57;1.30;;;11.80;99.90;;;;;;4976188;28;20045;-94
2022/09/18 10:32:58;;;;;;;5.90;1.15;;;11.80;99.90;;;;;;5002418;28;20658;-94
2022/09/18 10:35:55;;;;;;;6.57;1.20;;;11.80;99.90;;;;;;4991637;28;20049;-93
2022/09/18 10:38:42;;;;;;;4.53;0.90;;;11.80;99.90;;;;;;4981703;28;20056;-93
2022/09/18 10:41:38;;;;;;;5.57;1.08;;;11.80;99.90;;;;;;5003372;28;20045;-93
2022/09/18 10:44:29;;;;;;;5.80;1.10;;;11.70;99.90;;;;;;4987522;28;20540;-94
2022/09/18 10:47:04;;;;;;;9.23;1.35;;;11.80;99.90;;;;;;4991265;28;20041;-95
2022/09/18 10:49:51;;;;;;;8.48;1.50;;;11.80;99.90;;;;;;5009364;28;20051;-91
2022/09/18 10:52:32;;;;;;;9.00;1.52;;;11.80;99.90;;;;;;5036557;28;20053;-95
2022/09/18 10:54:59;;;;;;;8.18;1.30;;;11.90;99.90;;;;;;5038430;28;20480;-93
2022/09/18 10:57:44;;;;;;;11.50;1.33;;;11.90;99.90;;;;;;5038824;28;20491;-92
2022/09/18 11:00:23;;;;;;;5.95;1.42;;;11.90;99.90;;;;;;5044817;28;20454;-93
2022/09/18 11:03:11;;;;;;;5.88;1.20;;;11.90;99.90;;;;;;5038758;28;20053;-95
2022/09/18 11:05:55;;;;;;;6.90;1.05;;;11.90;99.90;;;;;;5037636;28;20056;-89
2022/09/18 11:08:33;;;;;;;10.23;1.48;;;11.90;99.90;;;;;;5053374;28;20566;-95
2022/09/18 11:11:09;;;;;;;8.68;1.67;;;11.90;99.90;;;;;;5030324;28;20044;-92
2022/09/18 11:13:49;;;;;;;6.57;1.63;;;11.80;99.90;;;;;;5051096;28;20107;-84
2022/09/18 11:16:57;;;;;;;10.05;2.10;;;11.90;99.90;;;;;;5040285;28;20132;-92
2022/09/18 11:19:47;;;;;;;8.43;1.40;;;11.90;99.90;;;;;;5010455;28;20626;-94
2022/09/18 11:22:31;;;;;;;7.82;1.77;;;11.90;99.90;;;;;;5044544;28;20048;-95
2022/09/18 11:25:28;;;;;;;6.78;1.13;;;11.90;99.90;;;;;;5041482;28;20266;-94
2022/09/18 11:27:59;;;;;;;10.68;2.30;;;12.00;99.90;;;;;;5038214;28;20079;-92
2022/09/18 11:30:28;;;;;;;11.13;2.92;;;12.00;99.90;;;;;;5041138;28;20333;-92
2022/09/18 11:32:57;;;;;;;9.55;2.75;;;12.10;99.90;;;;;;5041212;28;20066;-92
2022/09/18 11:35:28;;;;;;;7.05;2.20;;;12.10;99.90;;;;;;5036009;28;20052;-90
2022/09/18 11:37:59;;;;;;;9.93;2.25;;;12.10;99.90;;;;;;5035111;28;20457;-93
2022/09/18 11:40:47;;;;;;;6.70;1.27;;;12.20;99.90;;;;;;5052525;28;20047;-93
2022/09/18 11:43:25;;;;;;;12.73;2.00;;;12.20;99.90;;;;;;5041016;28;20240;-93
2022/09/18 11:46:17;;;;;;;8.35;1.77;;;12.30;99.90;;;;;;5038174;28;20049;-92
2022/09/18 11:48:57;;;;;;;8.20;1.67;;;12.30;99.90;;;;;;5039764;28;20102;-90
2022/09/18 11:51:34;;;;;;;10.82;1.58;;;12.40;99.90;;;;;;5043580;28;20103;-91
2022/09/18 11:54:10;;;;;;;12.25;2.17;;;12.40;99.90;;;;;;5036005;28;20041;-91
2022/09/18 11:56:46;;;;;;;8.98;2.10;;;12.40;99.90;;;;;;5032350;28;20080;-92
2022/09/18 11:59:41;;;;;;;8.93;1.80;;;12.50;99.90;;;;;;5043306;28;20510;-88
2022/09/18 12:02:21;;;;;;;10.52;1.73;;;12.60;99.90;;;;;;5040315;28;20048;-91
2022/09/18 12:04:53;;;;;;;8.75;1.60;;;12.70;99.90;;;;;;5034381;28;20155;-89
2022/09/18 12:07:41;;;;;;;11.23;2.28;;;12.70;99.90;;;;;;5041831;28;20083;-89
2022/09/18 12:10:29;;;;;;;13.43;6.10;;;12.80;99.90;;;;;;5063106;28;20060;-90
2022/09/18 12:13:24;;;;;;;10.07;1.80;;;12.90;99.90;;;;;;5045634;28;20142;-89
2022/09/18 12:15:58;;;;;;;11.68;2.50;;;12.90;99.90;;;;;;5012048;28;20495;-91
2022/09/18 12:18:30;;;;;;;10.07;1.95;;;13.00;99.90;;;;;;5058706;28;20056;-89
2022/09/18 12:21:02;;;;;;;15.93;2.22;;;13.00;99.90;;;;;;5055719;28;20353;-91
2022/09/18 12:23:29;;;;;;;10.35;1.70;;;13.00;99.90;;;;;;5047964;28;20037;-89
2022/09/18 12:26:07;;;;;;;7.93;1.45;;;13.10;99.90;;;;;;5046216;28;20051;-88
2022/09/18 12:29:05;;;;;;;8.77;1.58;;;13.10;99.90;;;;;;5048276;28;20052;-88
2022/09/18 12:31:58;;;;;;;11.93;2.08;;;13.20;99.90;;;;;;5047268;28;20041;-89
2022/09/18 12:34:54;;;;;;;6.95;1.90;;;13.20;99.90;;;;;;5047082;28;20045;-87
2022/09/18 12:37:20;;;;;;;9.65;2.10;;;13.20;99.90;;;;;;5047036;28;20569;-87
2022/09/18 12:40:15;;;;;;;11.80;1.60;;;13.20;99.90;;;;;;5046126;28;20060;-88
2022/09/18 12:43:11;;;;;;;9.75;1.35;;;13.30;99.90;;;;;;5051952;28;20059;-87
2022/09/18 12:46:11;;;;;;;11.85;1.70;;;13.30;99.90;;;;;;5061875;28;20056;-89
2022/09/18 12:48:49;;;;;;;10.95;1.73;;;13.30;99.90;;;;;;5062243;28;20121;-89
2022/09/18 12:51:30;;;;;;;7.80;1.45;;;13.30;99.90;;;;;;5038628;28;20060;-89
2022/09/18 12:54:33;;;;;;;8.95;1.70;;;13.30;99.90;;;;;;5041343;28;20681;-88
2022/09/18 12:57:14;;;;;;;6.10;1.58;;;13.30;99.90;;;;;;5060473;28;20045;-85
2022/09/18 13:00:12;;;;;;;8.73;1.77;;;13.30;99.90;;;;;;5059525;28;20087;-83
2022/09/18 13:02:41;;;;;;;8.82;2.00;;;13.30;99.90;;;;;;5045102;28;20569;-84
2022/09/18 13:05:17;;;;;;;9.50;1.90;;;13.20;99.90;;;;;;5040465;28;20629;-84
2022/09/18 13:07:56;;;;;;;6.03;1.35;;;13.30;99.90;;;;;;5036855;28;20057;-84
2022/09/18 13:10:24;;;;;;;9.85;2.08;;;13.20;99.90;;;;;;5043862;28;20407;-84
2022/09/18 13:12:59;;;;;;;9.18;1.63;;;13.10;99.90;;;;;;5038633;28;20044;-83
2022/09/18 13:15:55;;;;;;;9.45;1.58;;;13.10;99.90;;;;;;5043466;28;20123;-85
2022/09/18 13:18:46;;;;;;;7.70;1.35;;;13.10;99.90;;;;;;5045621;28;20376;-83
2022/09/18 13:21:23;;;;;;;4.85;1.45;;;13.10;99.90;;;;;;5042821;28;20045;-90
2022/09/18 13:23:54;;;;;;;7.70;1.25;;;13.10;99.90;;;;;;5046783;28;20044;-88
2022/09/18 13:26:24;;;;;;;8.30;1.50;;;13.10;99.90;;;;;;5024556;28;20091;-88
2022/09/18 13:28:50;;;;;;;6.28;1.30;;;13.00;99.90;;;;;;5037573;28;20535;-88
2022/09/18 13:31:20;;;;;;;7.20;1.15;;;13.00;99.90;;;;;;5010631;28;20061;-81
2022/09/18 13:33:57;;;;;;;10.57;1.50;;;13.10;99.90;;;;;;5043079;28;20040;-88
2022/09/18 13:36:45;;;;;;;9.38;1.30;;;13.00;99.90;;;;;;5058424;28;20365;-91
2022/09/18 13:39:27;;;;;;;7.45;1.52;;;13.00;99.90;;;;;;5043629;28;20044;-89
2022/09/18 13:41:57;;;;;;;12.43;1.73;;;13.00;99.90;;;;;;5043924;28;20175;-89